sensor_id;sensor_type;location;lat;lon;timestamp;pressure;altitude;pressure_sealevel;temperature;humidity
55032;BME280;40928;51.076;7.950;2024-03-17T00:01:03;97763.09;;;1.20;100.00
55032;BME280;40928;51.076;7.950;2024-03-17T00:03:30;97762.44;;;1.18;100.00
55032;BME280;40928;51.076;7.950;2024-03-17T00:06:00;97760.78;;;1.17;100.00
55032;BME280;40928;51.076;7.950;2024-03-17T00:08:26;97755.03;;;1.21;100.00
55032;BME280;40928;51.076;7.950;2024-03-17T00:10:53;97758.31;;;1.24;100.00
55032;BME280;40928;51.076;7.950;2024-03-17T00:13:19;97750.94;;;1.27;100.00
55032;BME280;40928;51.076;7.950;2024-03-17T00:15:44;97761.00;;;1.32;100.00
55032;BME280;40928;51.076;7.950;2024-03-17T00:18:10;97752.28;;;1.40;100.00
55032;BME280;40928;51.076;7.950;2024-03-17T00:20:37;97757.88;;;1.45;100.00
55032;BME280;40928;51.076;7.950;2024-03-17T00:23:04;97758.22;;;1.50;100.00
55032;BME280;40928;51.076;7.950;2024-03-17T00:25:35;97747.19;;;1.55;100.00
55032;BME280;40928;51.076;7.950;2024-03-17T00:28:01;97749.34;;;1.51;100.00
55032;BME280;40928;51.076;7.950;2024-03-17T00:30:28;97750.47;;;1.48;100.00
55032;BME280;40928;51.076;7.950;2024-03-17T00:32:54;97740.09;;;1.47;100.00
55032;BME280;40928;51.076;7.950;2024-03-17T00:35:19;97747.19;;;1.46;100.00
55032;BME280;40928;51.076;7.950;2024-03-17T00:37:48;97736.50;;;1.48;100.00
55032;BME280;40928;51.076;7.950;2024-03-17T00:40:15;97738.94;;;1.49;100.00
55032;BME280;40928;51.076;7.950;2024-03-17T00:42:42;97739.47;;;1.53;100.00
55032;BME280;40928;51.076;7.950;2024-03-17T00:45:08;97738.81;;;1.51;100.00
55032;BME280;40928;51.076;7.950;2024-03-17T00:47:35;97728.94;;;1.53;100.00
55032;BME280;40928;51.076;7.950;2024-03-17T00:50:01;97735.84;;;1.54;100.00
55032;BME280;40928;51.076;7.950;2024-03-17T00:52:27;97732.03;;;1.48;100.00
55032;BME280;40928;51.076;7.950;2024-03-17T00:54:53;97717.91;;;1.41;100.00
55032;BME280;40928;51.076;7.950;2024-03-17T00:57:19;97723.00;;;1.43;100.00
55032;BME280;40928;51.076;7.950;2024-03-17T00:59:45;97719.69;;;1.41;100.00
55032;BME280;40928;51.076;7.950;2024-03-17T01:02:11;97720.38;;;1.34;100.00
55032;BME280;40928;51.076;7.950;2024-03-17T01:04:42;97715.75;;;1.28;100.00
55032;BME280;40928;51.076;7.950;2024-03-17T01:07:11;97725.44;;;1.28;100.00
55032;BME280;40928;51.076;7.950;2024-03-17T01:09:37;97715.75;;;1.28;100.00
55032;BME280;40928;51.076;7.950;2024-03-17T01:12:03;97719.88;;;1.31;100.00
55032;BME280;40928;51.076;7.950;2024-03-17T01:14:29;97711.00;;;1.32;100.00
55032;BME280;40928;51.076;7.950;2024-03-17T01:16:56;97708.38;;;1.32;100.00
55032;BME280;40928;51.076;7.950;2024-03-17T01:19:22;97700.94;;;1.27;100.00
55032;BME280;40928;51.076;7.950;2024-03-17T01:21:48;97699.94;;;1.20;100.00
55032;BME280;40928;51.076;7.950;2024-03-17T01:24:14;97696.47;;;1.11;100.00
55032;BME280;40928;51.076;7.950;2024-03-17T01:26:40;97691.38;;;1.10;100.00
55032;BME280;40928;51.076;7.950;2024-03-17T01:29:06;97687.75;;;1.02;100.00
55032;BME280;40928;51.076;7.950;2024-03-17T01:31:34;97688.38;;;0.96;100.00
55032;BME280;40928;51.076;7.950;2024-03-17T01:34:00;97686.41;;;0.90;100.00
55032;BME280;40928;51.076;7.950;2024-03-17T01:36:26;97678.19;;;0.85;100.00
55032;BME280;40928;51.076;7.950;2024-03-17T01:38:52;97680.78;;;0.77;100.00
55032;BME280;40928;51.076;7.950;2024-03-17T01:41:18;97675.34;;;0.70;100.00
55032;BME280;40928;51.076;7.950;2024-03-17T01:43:43;97670.56;;;0.65;100.00
55032;BME280;40928;51.076;7.950;2024-03-17T01:46:18;97671.69;;;0.63;100.00
55032;BME280;40928;51.076;7.950;2024-03-17T01:48:44;97670.72;;;0.64;100.00
55032;BME280;40928;51.076;7.950;2024-03-17T01:51:13;97661.84;;;0.65;100.00
55032;BME280;40928;51.076;7.950;2024-03-17T01:53:42;97658.25;;;0.66;100.00
55032;BME280;40928;51.076;7.950;2024-03-17T01:56:10;97663.66;;;0.64;100.00
55032;BME280;40928;51.076;7.950;2024-03-17T01:58:36;97662.66;;;0.65;100.00
55032;BME280;40928;51.076;7.950;2024-03-17T02:01:02;97657.28;;;0.67;100.00
55032;BME280;40928;51.076;7.950;2024-03-17T02:03:30;97657.09;;;0.68;100.00
55032;BME280;40928;51.076;7.950;2024-03-17T02:05:56;97658.75;;;0.69;100.00
55032;BME280;40928;51.076;7.950;2024-03-17T02:08:22;97656.75;;;0.63;100.00
55032;BME280;40928;51.076;7.950;2024-03-17T02:10:54;97650.00;;;0.60;100.00
55032;BME280;40928;51.076;7.950;2024-03-17T02:13:21;97648.53;;;0.58;100.00
55032;BME280;40928;51.076;7.950;2024-03-17T02:15:47;97652.75;;;0.51;100.00
55032;BME280;40928;51.076;7.950;2024-03-17T02:18:13;97648.16;;;0.44;100.00
55032;BME280;40928;51.076;7.950;2024-03-17T02:20:39;97647.13;;;0.37;100.00
55032;BME280;40928;51.076;7.950;2024-03-17T02:23:42;97647.13;;;0.29;100.00
55032;BME280;40928;51.076;7.950;2024-03-17T02:26:10;97651.03;;;0.25;100.00
55032;BME280;40928;51.076;7.950;2024-03-17T02:28:42;97652.69;;;0.26;100.00
55032;BME280;40928;51.076;7.950;2024-03-17T02:31:09;97652.38;;;0.29;100.00
55032;BME280;40928;51.076;7.950;2024-03-17T02:33:36;97652.38;;;0.29;100.00
55032;BME280;40928;51.076;7.950;2024-03-17T02:36:02;97652.69;;;0.26;100.00
55032;BME280;40928;51.076;7.950;2024-03-17T02:38:30;97648.03;;;0.20;100.00
55032;BME280;40928;51.076;7.950;2024-03-17T02:41:15;97650.84;;;0.18;100.00
55032;BME280;40928;51.076;7.950;2024-03-17T02:43:41;97651.81;;;0.17;100.00
55032;BME280;40928;51.076;7.950;2024-03-17T02:46:06;97659.88;;;0.16;100.00
55032;BME280;40928;51.076;7.950;2024-03-17T02:48:36;97653.94;;;0.13;100.00
55032;BME280;40928;51.076;7.950;2024-03-17T02:51:06;97647.84;;;0.13;100.00
55032;BME280;40928;51.076;7.950;2024-03-17T02:53:32;97650.47;;;0.13;100.00
55032;BME280;40928;51.076;7.950;2024-03-17T02:55:57;97650.16;;;0.16;100.00
55032;BME280;40928;51.076;7.950;2024-03-17T02:58:23;97645.28;;;0.21;100.00
55032;BME280;40928;51.076;7.950;2024-03-17T03:00:49;97642.66;;;0.21;100.00
55032;BME280;40928;51.076;7.950;2024-03-17T03:03:15;97641.31;;;0.17;100.00
55032;BME280;40928;51.076;7.950;2024-03-17T03:05:40;97642.97;;;0.18;100.00
55032;BME280;40928;51.076;7.950;2024-03-17T03:08:06;97648.03;;;0.20;100.00
55032;BME280;40928;51.076;7.950;2024-03-17T03:10:32;97651.34;;;0.22;100.00
55032;BME280;40928;51.076;7.950;2024-03-17T03:12:57;97651.84;;;0.25;100.00
55032;BME280;40928;51.076;7.950;2024-03-17T03:15:24;97649.88;;;0.27;100.00
55032;BME280;40928;51.076;7.950;2024-03-17T03:17:50;97648.25;;;0.26;100.00
55032;BME280;40928;51.076;7.950;2024-03-17T03:20:16;97646.75;;;0.24;100.00
55032;BME280;40928;51.076;7.950;2024-03-17T03:22:41;97648.72;;;0.22;100.00
55032;BME280;40928;51.076;7.950;2024-03-17T03:25:07;97651.34;;;0.22;100.00
55032;BME280;40928;51.076;7.950;2024-03-17T03:27:33;97655.94;;;0.20;100.00
55032;BME280;40928;51.076;7.950;2024-03-17T03:29:59;97652.00;;;0.16;100.00
55032;BME280;40928;51.076;7.950;2024-03-17T03:32:25;97649.00;;;0.10;100.00
55032;BME280;40928;51.076;7.950;2024-03-17T03:34:51;97648.50;;;0.07;100.00
55032;BME280;40928;51.076;7.950;2024-03-17T03:37:17;97655.53;;;0.06;100.00
55032;BME280;40928;51.076;7.950;2024-03-17T03:39:43;97648.63;;;0.05;100.00
55032;BME280;40928;51.076;7.950;2024-03-17T03:42:09;97650.28;;;0.06;100.00
55032;BME280;40928;51.076;7.950;2024-03-17T03:44:34;97649.59;;;0.04;100.00
55032;BME280;40928;51.076;7.950;2024-03-17T03:47:00;97648.31;;;0.00;100.00
55032;BME280;40928;51.076;7.950;2024-03-17T03:49:27;97648.91;;;-0.06;100.00
55032;BME280;40928;51.076;7.950;2024-03-17T03:51:54;97651.03;;;-0.10;100.00
55032;BME280;40928;51.076;7.950;2024-03-17T03:54:19;97649.53;;;-0.12;100.00
55032;BME280;40928;51.076;7.950;2024-03-17T03:56:45;97646.22;;;-0.14;100.00
55032;BME280;40928;51.076;7.950;2024-03-17T03:59:11;97646.09;;;-0.13;100.00
55032;BME280;40928;51.076;7.950;2024-03-17T04:01:36;97640.97;;;-0.14;100.00
55032;BME280;40928;51.076;7.950;2024-03-17T04:04:02;97649.81;;;-0.16;100.00
55032;BME280;40928;51.076;7.950;2024-03-17T04:06:28;97644.56;;;-0.16;100.00
55032;BME280;40928;51.076;7.950;2024-03-17T04:08:54;97650.50;;;-0.13;100.00
55032;BME280;40928;51.076;7.950;2024-03-17T04:11:20;97651.81;;;-0.18;100.00
55032;BME280;40928;51.076;7.950;2024-03-17T04:13:45;97655.06;;;-0.16;100.00
55032;BME280;40928;51.076;7.950;2024-03-17T04:16:12;97658.38;;;-0.13;100.00
55032;BME280;40928;51.076;7.950;2024-03-17T04:18:40;97654.09;;;-0.14;100.00
55032;BME280;40928;51.076;7.950;2024-03-17T04:21:06;97649.69;;;-0.14;100.00
55032;BME280;40928;51.076;7.950;2024-03-17T04:23:35;97646.56;;;-0.18;100.00
55032;BME280;40928;51.076;7.950;2024-03-17T04:26:01;97645.72;;;-0.18;100.00
55032;BME280;40928;51.076;7.950;2024-03-17T04:28:28;97645.03;;;-0.20;100.00
55032;BME280;40928;51.076;7.950;2024-03-17T04:31:07;97644.22;;;-0.21;100.00
55032;BME280;40928;51.076;7.950;2024-03-17T04:33:33;97641.75;;;-0.22;100.00
55032;BME280;40928;51.076;7.950;2024-03-17T04:36:00;97638.63;;;-0.26;100.00
55032;BME280;40928;51.076;7.950;2024-03-17T04:38:27;97646.34;;;-0.24;100.00
55032;BME280;40928;51.076;7.950;2024-03-17T04:40:53;97646.34;;;-0.24;100.00
55032;BME280;40928;51.076;7.950;2024-03-17T04:43:30;97651.44;;;-0.23;100.00
55032;BME280;40928;51.076;7.950;2024-03-17T04:46:01;97644.56;;;-0.16;100.00
55032;BME280;40928;51.076;7.950;2024-03-17T04:48:30;97655.06;;;-0.16;100.00
55032;BME280;40928;51.076;7.950;2024-03-17T04:50:55;97653.44;;;-0.17;100.00
55032;BME280;40928;51.076;7.950;2024-03-17T04:53:21;97650.16;;;-0.19;100.00
55032;BME280;40928;51.076;7.950;2024-03-17T04:55:47;97644.06;;;-0.19;100.00
55032;BME280;40928;51.076;7.950;2024-03-17T04:58:12;97644.38;;;-0.22;100.00
55032;BME280;40928;51.076;7.950;2024-03-17T05:00:38;97647.16;;;-0.24;100.00
55032;BME280;40928;51.076;7.950;2024-03-17T05:03:04;97642.22;;;-0.27;100.00
55032;BME280;40928;51.076;7.950;2024-03-17T05:05:30;97642.22;;;-0.27;100.00
55032;BME280;40928;51.076;7.950;2024-03-17T05:07:55;97641.03;;;-0.33;100.00
55032;BME280;40928;51.076;7.950;2024-03-17T05:10:21;97642.84;;;-0.33;100.00
55032;BME280;40928;51.076;7.950;2024-03-17T05:12:47;97639.56;;;-0.35;100.00
55032;BME280;40928;51.076;7.950;2024-03-17T05:15:13;97640.53;;;-0.36;100.00
55032;BME280;40928;51.076;7.950;2024-03-17T05:17:40;97632.66;;;-0.36;100.00
55032;BME280;40928;51.076;7.950;2024-03-17T05:20:06;97640.06;;;-0.32;100.00
55032;BME280;40928;51.076;7.950;2024-03-17T05:22:35;97642.06;;;-0.25;100.00
55032;BME280;40928;51.076;7.950;2024-03-17T05:25:00;97641.25;;;-0.26;100.00
55032;BME280;40928;51.076;7.950;2024-03-17T05:27:26;97646.66;;;-0.27;100.00
55032;BME280;40928;51.076;7.950;2024-03-17T05:29:52;97635.19;;;-0.26;100.00
55032;BME280;40928;51.076;7.950;2024-03-17T05:32:18;97641.72;;;-0.31;100.00
55032;BME280;40928;51.076;7.950;2024-03-17T05:34:44;97632.84;;;-0.29;100.00
55032;BME280;40928;51.076;7.950;2024-03-17T05:37:09;97627.09;;;-0.33;100.00
55032;BME280;40928;51.076;7.950;2024-03-17T05:39:35;97627.25;;;-0.35;100.00
55032;BME280;40928;51.076;7.950;2024-03-17T05:42:01;97618.84;;;-0.38;100.00
55032;BME280;40928;51.076;7.950;2024-03-17T05:44:29;97625.47;;;-0.34;100.00
55032;BME280;40928;51.076;7.950;2024-03-17T05:46:59;97626.44;;;-0.35;100.00
55032;BME280;40928;51.076;7.950;2024-03-17T05:49:24;97626.13;;;-0.32;100.00
55032;BME280;40928;51.076;7.950;2024-03-17T05:51:50;97625.78;;;-0.29;100.00
55032;BME280;40928;51.076;7.950;2024-03-17T05:54:16;97634.03;;;-0.24;100.00
55032;BME280;40928;51.076;7.950;2024-03-17T05:56:41;97615.00;;;-0.26;100.00
55032;BME280;40928;51.076;7.950;2024-03-17T05:59:13;97628.81;;;-0.16;100.00
55032;BME280;40928;51.076;7.950;2024-03-17T06:01:39;97635.72;;;-0.14;100.00
55032;BME280;40928;51.076;7.950;2024-03-17T06:04:04;97637.69;;;-0.17;100.00
55032;BME280;40928;51.076;7.950;2024-03-17T06:06:30;97630.28;;;-0.21;100.00
55032;BME280;40928;51.076;7.950;2024-03-17T06:08:56;97634.72;;;-0.22;100.00
55032;BME280;40928;51.076;7.950;2024-03-17T06:11:22;97630.44;;;-0.23;100.00
55032;BME280;40928;51.076;7.950;2024-03-17T06:13:47;97632.56;;;-0.26;100.00
55032;BME280;40928;51.076;7.950;2024-03-17T06:16:13;97635.31;;;-0.28;100.00
55032;BME280;40928;51.076;7.950;2024-03-17T06:18:39;97621.84;;;-0.33;100.00
55032;BME280;40928;51.076;7.950;2024-03-17T06:21:05;97623.50;;;-0.32;100.00
55032;BME280;40928;51.076;7.950;2024-03-17T06:23:30;97618.25;;;-0.32;100.00
55032;BME280;40928;51.076;7.950;2024-03-17T06:25:56;97611.34;;;-0.33;100.00
55032;BME280;40928;51.076;7.950;2024-03-17T06:28:23;97618.09;;;-0.31;100.00
55032;BME280;40928;51.076;7.950;2024-03-17T06:30:57;97616.94;;;-0.28;100.00
55032;BME280;40928;51.076;7.950;2024-03-17T06:33:29;97611.91;;;-0.21;100.00
55032;BME280;40928;51.076;7.950;2024-03-17T06:35:57;97620.31;;;-0.18;100.00
55032;BME280;40928;51.076;7.950;2024-03-17T06:38:25;97612.09;;;-0.14;100.00
55032;BME280;40928;51.076;7.950;2024-03-17T06:40:51;97596.03;;;-0.11;100.00
55032;BME280;40928;51.076;7.950;2024-03-17T06:43:17;97597.53;;;-0.09;100.00
55032;BME280;40928;51.076;7.950;2024-03-17T06:45:44;97597.06;;;-0.04;100.00
55032;BME280;40928;51.076;7.950;2024-03-17T06:48:09;97593.16;;;0.00;100.00
55032;BME280;40928;51.076;7.950;2024-03-17T06:50:37;97585.91;;;0.02;100.00
55032;BME280;40928;51.076;7.950;2024-03-17T06:53:04;97590.06;;;0.13;100.00
55032;BME280;40928;51.076;7.950;2024-03-17T06:55:30;97596.66;;;0.17;100.00
55032;BME280;40928;51.076;7.950;2024-03-17T06:57:56;97596.03;;;0.23;100.00
55032;BME280;40928;51.076;7.950;2024-03-17T07:00:21;97597.22;;;0.29;100.00
55032;BME280;40928;51.076;7.950;2024-03-17T07:02:50;97588.34;;;0.30;100.00
55032;BME280;40928;51.076;7.950;2024-03-17T07:05:16;97595.44;;;0.46;100.00
55032;BME280;40928;51.076;7.950;2024-03-17T07:07:42;97595.00;;;0.59;100.00
55032;BME280;40928;51.076;7.950;2024-03-17T07:10:10;97591.88;;;0.72;100.00
55032;BME280;40928;51.076;7.950;2024-03-17T07:12:39;97598.00;;;0.89;100.00
55032;BME280;40928;51.076;7.950;2024-03-17T07:15:06;97597.50;;;1.02;100.00
55032;BME280;40928;51.076;7.950;2024-03-17T07:17:32;97602.28;;;1.15;100.00
55032;BME280;40928;51.076;7.950;2024-03-17T07:19:58;97596.19;;;1.31;100.00
55032;BME280;40928;51.076;7.950;2024-03-17T07:22:24;97599.97;;;1.45;100.00
55032;BME280;40928;51.076;7.950;2024-03-17T07:24:55;97595.00;;;1.58;100.00
55032;BME280;40928;51.076;7.950;2024-03-17T07:27:26;97594.50;;;1.71;100.00
55032;BME280;40928;51.076;7.950;2024-03-17T07:29:52;97590.34;;;1.85;100.00
55032;BME280;40928;51.076;7.950;2024-03-17T07:32:17;97592.28;;;2.00;100.00
55032;BME280;40928;51.076;7.950;2024-03-17T07:34:43;97602.09;;;2.14;100.00
55032;BME280;40928;51.076;7.950;2024-03-17T07:37:09;97610.94;;;2.30;100.00
55032;BME280;40928;51.076;7.950;2024-03-17T07:39:35;97602.84;;;2.39;100.00
55032;BME280;40928;51.076;7.950;2024-03-17T07:42:02;97591.72;;;2.52;100.00
55032;BME280;40928;51.076;7.950;2024-03-17T07:44:29;97580.91;;;2.70;100.00
55032;BME280;40928;51.076;7.950;2024-03-17T07:47:03;97585.19;;;2.95;100.00
55032;BME280;40928;51.076;7.950;2024-03-17T07:49:32;97580.06;;;3.16;100.00
55032;BME280;40928;51.076;7.950;2024-03-17T07:51:58;97571.66;;;3.36;100.00
55032;BME280;40928;51.076;7.950;2024-03-17T07:54:24;97576.06;;;3.59;100.00
55032;BME280;40928;51.076;7.950;2024-03-17T07:56:51;97581.75;;;3.86;100.00
55032;BME280;40928;51.076;7.950;2024-03-17T07:59:17;97581.72;;;4.16;100.00
55032;BME280;40928;51.076;7.950;2024-03-17T08:01:44;97585.34;;;4.45;100.00
55032;BME280;40928;51.076;7.950;2024-03-17T08:04:12;97585.22;;;4.90;100.00
55032;BME280;40928;51.076;7.950;2024-03-17T08:06:39;97580.22;;;5.23;99.87
55032;BME280;40928;51.076;7.950;2024-03-17T08:09:04;97576.97;;;5.49;100.00
55032;BME280;40928;51.076;7.950;2024-03-17T08:11:30;97587.72;;;5.70;99.63
55032;BME280;40928;51.076;7.950;2024-03-17T08:13:57;97591.28;;;5.84;97.98
55032;BME280;40928;51.076;7.950;2024-03-17T08:16:23;97595.59;;;5.91;93.58
55032;BME280;40928;51.076;7.950;2024-03-17T08:18:48;97600.06;;;5.91;94.24
55032;BME280;40928;51.076;7.950;2024-03-17T08:21:14;97590.53;;;5.97;92.77
55032;BME280;40928;51.076;7.950;2024-03-17T08:23:39;97584.47;;;6.03;91.51
55032;BME280;40928;51.076;7.950;2024-03-17T08:26:08;97585.91;;;6.05;91.27
55032;BME280;40928;51.076;7.950;2024-03-17T08:28:34;97578.00;;;6.12;91.15
55032;BME280;40928;51.076;7.950;2024-03-17T08:31:01;97573.09;;;6.16;91.64
55032;BME280;40928;51.076;7.950;2024-03-17T08:33:28;97583.09;;;6.07;91.69
55032;BME280;40928;51.076;7.950;2024-03-17T08:36:04;97586.31;;;6.09;91.81
55032;BME280;40928;51.076;7.950;2024-03-17T08:38:31;97579.91;;;6.32;92.33
55032;BME280;40928;51.076;7.950;2024-03-17T08:41:02;97586.06;;;6.39;90.52
55032;BME280;40928;51.076;7.950;2024-03-17T08:43:28;97584.31;;;6.60;90.18
55032;BME280;40928;51.076;7.950;2024-03-17T08:48:27;97574.81;;;6.99;87.22
55032;BME280;40928;51.076;7.950;2024-03-17T08:50:54;97581.34;;;7.03;86.91
55032;BME280;40928;51.076;7.950;2024-03-17T08:53:22;97580.94;;;7.06;86.98
55032;BME280;40928;51.076;7.950;2024-03-17T08:55:49;97582.59;;;7.21;88.05
55032;BME280;40928;51.076;7.950;2024-03-17T08:58:15;97580.16;;;7.32;87.40
55032;BME280;40928;51.076;7.950;2024-03-17T09:00:41;97590.78;;;7.46;85.37
55032;BME280;40928;51.076;7.950;2024-03-17T09:03:08;97596.09;;;7.53;83.86
55032;BME280;40928;51.076;7.950;2024-03-17T09:05:38;97601.00;;;7.56;84.85
55032;BME280;40928;51.076;7.950;2024-03-17T09:08:05;97591.59;;;7.67;84.88
55032;BME280;40928;51.076;7.950;2024-03-17T09:10:43;97595.66;;;7.83;84.90
55032;BME280;40928;51.076;7.950;2024-03-17T09:13:17;97599.56;;;7.80;82.20
55032;BME280;40928;51.076;7.950;2024-03-17T09:15:56;97592.97;;;7.89;82.53
55032;BME280;40928;51.076;7.950;2024-03-17T09:18:23;97591.16;;;7.90;81.74
55032;BME280;40928;51.076;7.950;2024-03-17T09:21:07;97591.31;;;8.08;82.29
55032;BME280;40928;51.076;7.950;2024-03-17T09:23:34;97593.28;;;8.33;81.63
55032;BME280;40928;51.076;7.950;2024-03-17T09:26:01;97596.28;;;8.64;79.76
55032;BME280;40928;51.076;7.950;2024-03-17T09:28:28;97602.88;;;8.93;78.94
55032;BME280;40928;51.076;7.950;2024-03-17T09:30:54;97598.06;;;9.09;76.42
55032;BME280;40928;51.076;7.950;2024-03-17T09:33:21;97590.66;;;9.43;75.54
55032;BME280;40928;51.076;7.950;2024-03-17T09:36:03;97594.19;;;9.37;73.48
55032;BME280;40928;51.076;7.950;2024-03-17T09:38:32;97599.91;;;9.40;73.37
55032;BME280;40928;51.076;7.950;2024-03-17T09:40:58;97586.28;;;9.74;73.14
55032;BME280;40928;51.076;7.950;2024-03-17T09:43:27;97590.22;;;9.71;72.26
55032;BME280;40928;51.076;7.950;2024-03-17T09:45:54;97591.69;;;10.11;70.99
55032;BME280;40928;51.076;7.950;2024-03-17T09:48:26;97590.63;;;10.31;68.76
55032;BME280;40928;51.076;7.950;2024-03-17T09:51:01;97579.94;;;10.12;69.71
55032;BME280;40928;51.076;7.950;2024-03-17T09:55:58;97581.25;;;10.77;68.27
55032;BME280;40928;51.076;7.950;2024-03-17T09:58:24;97574.13;;;11.02;67.00
55032;BME280;40928;51.076;7.950;2024-03-17T10:00:50;97583.00;;;11.02;66.54
55032;BME280;40928;51.076;7.950;2024-03-17T10:06:30;97574.34;;;10.58;67.03
55032;BME280;40928;51.076;7.950;2024-03-17T10:08:58;97579.81;;;10.44;67.32
55032;BME280;40928;51.076;7.950;2024-03-17T10:11:34;97587.28;;;9.98;68.02
55032;BME280;40928;51.076;7.950;2024-03-17T10:14:08;97598.84;;;10.11;67.93
55032;BME280;40928;51.076;7.950;2024-03-17T10:16:38;97590.84;;;9.67;69.52
55032;BME280;40928;51.076;7.950;2024-03-17T10:19:24;97587.00;;;9.88;70.70
55032;BME280;40928;51.076;7.950;2024-03-17T10:21:58;97586.41;;;9.86;69.48
55032;BME280;40928;51.076;7.950;2024-03-17T10:24:25;97589.13;;;9.28;72.26
55032;BME280;40928;51.076;7.950;2024-03-17T10:26:54;97595.81;;;9.38;73.44
55032;BME280;40928;51.076;7.950;2024-03-17T10:31:56;97585.69;;;9.72;72.38
55032;BME280;40928;51.076;7.950;2024-03-17T10:34:24;97594.66;;;9.78;71.23
55032;BME280;40928;51.076;7.950;2024-03-17T10:37:10;97584.59;;;9.80;71.90
55032;BME280;40928;51.076;7.950;2024-03-17T10:39:40;97588.56;;;9.96;72.35
55032;BME280;40928;51.076;7.950;2024-03-17T10:42:08;97602.03;;;10.01;70.82
55032;BME280;40928;51.076;7.950;2024-03-17T10:44:35;97591.53;;;10.06;70.73
55032;BME280;40928;51.076;7.950;2024-03-17T10:47:03;97581.03;;;9.67;71.82
55032;BME280;40928;51.076;7.950;2024-03-17T10:49:36;97574.16;;;9.78;72.01
55032;BME280;40928;51.076;7.950;2024-03-17T10:52:03;97576.09;;;9.89;70.93
55032;BME280;40928;51.076;7.950;2024-03-17T10:54:30;97578.00;;;9.82;71.16
55032;BME280;40928;51.076;7.950;2024-03-17T10:57:13;97566.28;;;9.83;71.60
55032;BME280;40928;51.076;7.950;2024-03-17T10:59:47;97553.69;;;9.72;71.26
55032;BME280;40928;51.076;7.950;2024-03-17T11:04:44;97571.75;;;9.70;71.99
55032;BME280;40928;51.076;7.950;2024-03-17T11:07:16;97575.38;;;9.75;72.64
55032;BME280;40928;51.076;7.950;2024-03-17T11:09:43;97581.56;;;9.76;73.39
55032;BME280;40928;51.076;7.950;2024-03-17T11:12:44;97576.72;;;9.66;71.73
55032;BME280;40928;51.076;7.950;2024-03-17T11:20:40;97566.16;;;9.78;72.83
55032;BME280;40928;51.076;7.950;2024-03-17T11:23:06;97569.84;;;9.77;71.87
55032;BME280;40928;51.076;7.950;2024-03-17T11:28:04;97573.44;;;9.89;72.50
55032;BME280;40928;51.076;7.950;2024-03-17T11:41:41;97576.22;;;9.76;72.57
55032;BME280;40928;51.076;7.950;2024-03-17T11:49:31;97569.56;;;9.85;71.57
55032;BME280;40928;51.076;7.950;2024-03-17T11:52:00;97571.44;;;9.85;71.01
55032;BME280;40928;51.076;7.950;2024-03-17T11:54:28;97570.75;;;9.89;71.14
55032;BME280;40928;51.076;7.950;2024-03-17T11:56:59;97573.84;;;9.86;70.81
55032;BME280;40928;51.076;7.950;2024-03-17T11:59:25;97564.28;;;9.79;71.80
55032;BME280;40928;51.076;7.950;2024-03-17T12:01:51;97567.06;;;9.90;71.96
55032;BME280;40928;51.076;7.950;2024-03-17T12:04:20;97569.94;;;9.89;70.52
55032;BME280;40928;51.076;7.950;2024-03-17T12:06:47;97567.50;;;9.87;70.43
55032;BME280;40928;51.076;7.950;2024-03-17T12:09:27;97569.56;;;9.85;71.18
55032;BME280;40928;51.076;7.950;2024-03-17T12:12:01;97565.50;;;10.01;71.21
55032;BME280;40928;51.076;7.950;2024-03-17T12:14:28;97565.38;;;10.15;71.48
55032;BME280;40928;51.076;7.950;2024-03-17T12:16:56;97565.38;;;10.33;71.32
55032;BME280;40928;51.076;7.950;2024-03-17T12:19:23;97565.59;;;10.50;70.29
55032;BME280;40928;51.076;7.950;2024-03-17T12:21:54;97566.84;;;10.66;70.11
55032;BME280;40928;51.076;7.950;2024-03-17T12:24:22;97558.16;;;10.83;69.26
55032;BME280;40928;51.076;7.950;2024-03-17T12:26:49;97555.13;;;11.10;67.85
55032;BME280;40928;51.076;7.950;2024-03-17T12:31:51;97551.81;;;11.50;66.49
55032;BME280;40928;51.076;7.950;2024-03-17T12:34:18;97545.16;;;11.29;65.21
55032;BME280;40928;51.076;7.950;2024-03-17T12:36:45;97543.53;;;11.28;65.27
55032;BME280;40928;51.076;7.950;2024-03-17T12:39:18;97541.19;;;11.32;65.52
55032;BME280;40928;51.076;7.950;2024-03-17T12:41:45;97542.25;;;11.31;64.62
55032;BME280;40928;51.076;7.950;2024-03-17T12:44:25;97526.91;;;11.38;65.91
55032;BME280;40928;51.076;7.950;2024-03-17T12:46:55;97521.91;;;11.41;66.05
55032;BME280;40928;51.076;7.950;2024-03-17T12:49:22;97519.34;;;11.70;66.59
55032;BME280;40928;51.076;7.950;2024-03-17T12:51:51;97516.44;;;11.84;66.05
55032;BME280;40928;51.076;7.950;2024-03-17T12:54:19;97514.44;;;11.91;65.41
55032;BME280;40928;51.076;7.950;2024-03-17T12:56:46;97516.56;;;12.01;63.93
55032;BME280;40928;51.076;7.950;2024-03-17T12:59:37;97509.81;;;11.98;63.24
55032;BME280;40928;51.076;7.950;2024-03-17T13:02:22;97510.03;;;12.09;62.96
55032;BME280;40928;51.076;7.950;2024-03-17T13:05:19;97504.41;;;12.22;61.64
55032;BME280;40928;51.076;7.950;2024-03-17T13:07:49;97502.34;;;12.41;60.71
55032;BME280;40928;51.076;7.950;2024-03-17T13:10:19;97511.66;;;12.10;59.97
55032;BME280;40928;51.076;7.950;2024-03-17T13:12:46;97495.84;;;11.84;62.68
55032;BME280;40928;51.076;7.950;2024-03-17T13:15:17;97494.69;;;11.80;61.84
55032;BME280;40928;51.076;7.950;2024-03-17T13:17:44;97492.00;;;11.80;62.56
55032;BME280;40928;51.076;7.950;2024-03-17T13:20:17;97478.63;;;11.68;62.81
55032;BME280;40928;51.076;7.950;2024-03-17T13:22:43;97481.94;;;11.58;62.82
55032;BME280;40928;51.076;7.950;2024-03-17T13:25:29;97474.94;;;11.46;63.07
55032;BME280;40928;51.076;7.950;2024-03-17T13:28:00;97474.03;;;11.52;62.77
55032;BME280;40928;51.076;7.950;2024-03-17T13:30:29;97459.56;;;11.53;64.17
55032;BME280;40928;51.076;7.950;2024-03-17T13:32:56;97459.44;;;11.71;63.92
55032;BME280;40928;51.076;7.950;2024-03-17T13:35:26;97453.88;;;11.61;63.30
55032;BME280;40928;51.076;7.950;2024-03-17T13:37:53;97446.53;;;11.68;63.42
55032;BME280;40928;51.076;7.950;2024-03-17T13:40:26;97445.41;;;11.64;63.65
55032;BME280;40928;51.076;7.950;2024-03-17T13:42:53;97448.06;;;11.64;64.25
55032;BME280;40928;51.076;7.950;2024-03-17T13:45:21;97446.66;;;11.73;64.12